Time;durP1;ratioP1;P1;durP2;ratioP2;P2;SDS_P1;SDS_P2;PMS_P1;PMS_P2;Temp;Humidity;BMP_temperature;BMP_pressure;BME280_temperature;BME280_humidity;BME280_pressure;Samples;Min_cycle;Max_cycle;Signal;HPM_P1;HPM_P2
2021/08/16 05:00:26;;;;;;;;;;;;;;;26.72;51.21;100069.94;1856402;77;20197;-66
2021/08/16 05:02:54;;;;;;;;;;;;;;;27.00;50.51;100069.20;1827077;78;20148;-65
2021/08/16 05:05:24;;;;;;;;;;;;;;;27.32;49.76;100061.14;1828611;78;21168;-66
2021/08/16 05:07:52;;;;;;;;;;;;;;;27.63;49.10;100065.61;1828372;78;20443;-66
2021/08/16 05:10:20;;;;;;;;;;;;;;;27.91;48.50;100058.90;1825845;78;20087;-66
2021/08/16 05:12:50;;;;;;;;;;;;;;;28.18;48.01;100062.52;1827700;78;20081;-70
2021/08/16 05:15:17;;;;;;;;;;;;;;;28.44;47.50;100051.92;1825240;78;20141;-68
2021/08/16 05:17:46;;;;;;;;;;;;;;;28.74;46.92;100058.30;1826618;78;20496;-70
2021/08/16 05:20:14;;;;;;;;;;;;;;;29.04;46.04;100061.45;1827209;78;20151;-70
2021/08/16 05:22:45;;;;;;;;;;;;;;;29.29;45.66;100054.44;1826496;78;20147;-69
2021/08/16 05:25:13;;;;;;;;;;;;;;;29.52;45.18;100058.90;1828424;78;20078;-68
2021/08/16 05:27:40;;;;;;;;;;;;;;;29.78;44.76;100046.45;1828639;78;20073;-72
2021/08/16 05:30:08;;;;;;;;;;;;;;;30.01;44.32;100047.33;1801901;78;21891;-72
2021/08/16 05:32:36;;;;;;;;;;;;;;;30.17;44.08;100040.97;1824680;78;20401;-69
2021/08/16 05:35:03;;;;;;;;;;;;;;;30.43;43.78;100043.21;1825913;78;20070;-70
2021/08/16 05:37:31;;;;;;;;;;;;;;;30.64;43.32;100036.72;1827987;77;20143;-74
2021/08/16 05:39:58;;;;;;;;;;;;;;;30.79;43.01;100038.59;1812164;78;20077;-74
2021/08/16 05:42:24;;;;;;;;;;;;;;;30.93;42.72;100040.13;1821716;78;21048;-72
2021/08/16 05:44:52;;;;;;;;;;;;;;;31.08;42.49;100039.81;1825901;78;20142;-72
2021/08/16 05:47:19;;;;;;;;;;;;;;;31.22;42.30;100036.50;1812351;78;20126;-70
2021/08/16 05:49:46;;;;;;;;;;;;;;;31.35;42.05;100038.56;1822367;78;20418;-70
2021/08/16 05:52:13;;;;;;;;;;;;;;;31.49;41.78;100036.58;1816841;78;20119;-73
2021/08/16 05:54:40;;;;;;;;;;;;;;;31.65;41.06;100034.63;1821809;78;21291;-69
2021/08/16 05:57:09;;;;;;;;;;;;;;;31.78;41.16;100038.56;1790342;78;20106;-68
2021/08/16 05:59:38;;;;;;;;;;;;;;;31.82;40.80;100041.64;1804004;78;20113;-68
2021/08/16 06:02:05;;;;;;;;;;;;;;;31.87;40.89;100045.00;1816729;79;20388;-70
2021/08/16 06:04:32;;;;;;;;;;;;;;;31.82;40.86;100042.46;1816696;78;20368;-70
2021/08/16 06:06:59;;;;;;;;;;;;;;;31.87;40.82;100043.66;1815463;79;21811;-71
2021/08/16 06:09:29;;;;;;;;;;;;;;;32.00;40.56;100038.09;1815945;79;20070;-71
2021/08/16 06:11:56;;;;;;;;;;;;;;;32.09;39.97;100040.78;1797918;79;20468;-70
2021/08/16 06:14:23;;;;;;;;;;;;;;;32.11;39.95;100043.55;1795101;79;20154;-72
2021/08/16 06:16:53;;;;;;;;;;;;;;;32.25;39.77;100042.08;1810722;79;20090;-72
2021/08/16 06:19:21;;;;;;;;;;;;;;;32.41;39.70;100037.39;1811858;79;20425;-71
2021/08/16 06:21:49;;;;;;;;;;;;;;;32.53;39.40;100039.61;1810196;79;20082;-71
2021/08/16 06:24:15;;;;;;;;;;;;;;;32.64;38.97;100041.53;1813075;79;20293;-70
2021/08/16 06:26:46;;;;;;;;;;;;;;;32.81;38.81;100049.27;1814579;78;20146;-71
2021/08/16 06:29:17;;;;;;;;;;;;;;;32.96;38.44;100059.63;1797776;79;20484;-69
2021/08/16 06:31:45;;;;;;;;;;;;;;;33.00;38.36;100054.07;1813919;79;21500;-69
2021/08/16 06:34:12;;;;;;;;;;;;;;;33.00;38.27;100063.52;1799621;78;20362;-69
2021/08/16 06:36:40;;;;;;;;;;;;;;;33.09;38.43;100072.09;1805238;79;20166;-71
2021/08/16 06:39:09;;;;;;;;;;;;;;;33.20;38.09;100069.92;1773008;80;20158;-69
2021/08/16 06:41:36;;;;;;;;;;;;;;;33.22;38.29;100064.29;1755719;80;20126;-72
2021/08/16 06:44:04;;;;;;;;;;;;;;;33.19;38.53;100068.83;1734103;81;22096;-71
2021/08/16 06:49:14;;;;;;;;;;;;;;;33.17;38.22;100069.59;1704099;82;20406;-71
2021/08/16 06:51:41;;;;;;;;;;;;;;;33.17;38.04;100072.30;1739232;82;20166;-73
2021/08/16 06:54:08;;;;;;;;;;;;;;;32.97;38.52;100073.94;1744890;82;20114;-69
2021/08/16 06:56:37;;;;;;;;;;;;;;;32.94;39.55;100073.05;1743509;82;21952;-69
2021/08/16 06:59:04;;;;;;;;;;;;;;;33.15;39.55;100073.88;1735788;82;20111;-69
2021/08/16 07:01:31;;;;;;;;;;;;;;;33.46;39.35;100078.14;1744412;81;20099;-72
2021/08/16 07:03:58;;;;;;;;;;;;;;;33.82;37.92;100074.92;1749496;82;20118;-72
2021/08/16 07:06:25;;;;;;;;;;;;;;;34.06;37.18;100078.68;1749561;81;20082;-69
2021/08/16 07:08:52;;;;;;;;;;;;;;;34.23;37.32;100078.77;1751057;81;21134;-67
2021/08/16 07:11:20;;;;;;;;;;;;;;;34.48;36.97;100076.28;1746255;81;20095;-67
2021/08/16 07:13:51;;;;;;;;;;;;;;;34.64;36.09;100076.87;1752818;82;20095;-67
2021/08/16 07:16:18;;;;;;;;;;;;;;;34.73;35.80;100072.72;1754988;81;20102;-65
2021/08/16 07:18:47;;;;;;;;;;;;;;;34.87;35.81;100079.47;1752784;81;20519;-66
2021/08/16 07:21:15;;;;;;;;;;;;;;;35.04;35.10;100076.79;1753795;81;20132;-67
2021/08/16 07:23:44;;;;;;;;;;;;;;;35.12;35.04;100085.04;1751414;81;20086;-69
2021/08/16 07:26:11;;;;;;;;;;;;;;;35.13;35.22;100080.73;1753684;81;20089;-67
2021/08/16 07:28:38;;;;;;;;;;;;;;;35.15;35.16;100077.78;1729156;81;20095;-68
2021/08/16 07:31:05;;;;;;;;;;;;;;;35.07;35.37;100069.00;1741695;82;20108;-68
2021/08/16 07:33:32;;;;;;;;;;;;;;;35.09;35.73;100072.28;1751564;81;21145;-70
2021/08/16 07:35:59;;;;;;;;;;;;;;;35.24;35.65;100069.52;1726925;82;20389;-69
2021/08/16 07:38:25;;;;;;;;;;;;;;;35.36;34.78;100079.77;1751919;81;20157;-71
2021/08/16 07:40:54;;;;;;;;;;;;;;;35.39;34.90;100069.26;1746187;81;20154;-72
2021/08/16 07:43:22;;;;;;;;;;;;;;;35.50;34.87;100065.36;1743497;81;20095;-71
2021/08/16 07:45:50;;;;;;;;;;;;;;;35.64;34.51;100066.09;1748041;82;21105;-69
2021/08/16 07:48:17;;;;;;;;;;;;;;;35.75;34.28;100062.45;1729370;82;20124;-70
2021/08/16 07:50:44;;;;;;;;;;;;;;;35.80;34.00;100049.55;1734954;82;20118;-74
2021/08/16 07:53:11;;;;;;;;;;;;;;;35.88;33.75;100050.47;1724008;82;20111;-71
2021/08/16 07:55:40;;;;;;;;;;;;;;;35.93;33.32;100051.89;1711240;82;20086;-71
2021/08/16 07:58:08;;;;;;;;;;;;;;;35.94;33.33;100048.11;1753107;82;22108;-71
2021/08/16 08:00:34;;;;;;;;;;;;;;;35.81;33.91;100044.95;1726974;81;20413;-69
2021/08/16 08:03:03;;;;;;;;;;;;;;;35.70;34.15;100041.24;1758956;81;20153;-70
2021/08/16 08:05:30;;;;;;;;;;;;;;;35.55;34.02;100032.39;1749702;81;20093;-68
2021/08/16 08:07:57;;;;;;;;;;;;;;;35.52;34.22;100040.20;1735578;81;20110;-72
2021/08/16 08:10:26;;;;;;;;;;;;;;;35.59;34.14;100042.20;1758505;81;21198;-70
2021/08/16 08:12:54;;;;;;;;;;;;;;;35.71;34.35;100045.59;1754402;81;20118;-72
2021/08/16 08:15:25;;;;;;;;;;;;;;;35.84;33.75;100041.73;1751601;82;20107;-70
2021/08/16 08:17:52;;;;;;;;;;;;;;;35.87;33.54;100042.05;1754754;81;20082;-70
2021/08/16 08:20:20;;;;;;;;;;;;;;;35.82;33.72;100040.63;1747894;81;20435;-73
2021/08/16 08:22:49;;;;;;;;;;;;;;;35.83;33.76;100042.80;1757159;81;21594;-74
2021/08/16 08:25:17;;;;;;;;;;;;;;;35.79;33.30;100050.61;1757341;81;20670;-72
2021/08/16 08:28:21;;;;;;;;;;;;;;;;;;;;;
2021/08/16 08:33:53;;;;;;;;;;;;;;;35.72;32.75;100048.05;1624854;88;20500;-73
2021/08/16 08:36:23;;;;;;;;;;;;;;;35.55;32.78;100057.31;1629211;86;21065;-70
2021/08/16 08:38:56;;;;;;;;;;;;;;;35.45;32.53;100055.27;1632028;86;20460;-71
2021/08/16 08:41:25;;;;;;;;;;;;;;;35.45;32.39;100047.14;1657287;86;20391;-68
2021/08/16 08:43:56;;;;;;;;;;;;;;;35.35;32.35;100053.75;1653582;86;20129;-69
2021/08/16 08:46:34;;;;;;;;;;;;;;;35.28;32.68;100049.83;1658279;86;20102;-71
2021/08/16 08:49:41;;;;;;;;;;;;;;;35.24;32.70;100052.73;1659519;86;20118;-69
2021/08/16 08:55:16;;;;;;;;;;;;;;;35.35;32.14;100055.11;1659665;86;20100;-71
2021/08/16 08:57:55;;;;;;;;;;;;;;;35.36;31.88;100058.92;1651358;86;20123;-72
2021/08/16 09:00:49;;;;;;;;;;;;;;;35.30;32.19;100050.43;1656916;86;20090;-72
2021/08/16 09:03:18;;;;;;;;;;;;;;;35.26;32.13;100049.25;1658319;86;21919;-71
2021/08/16 09:05:50;;;;;;;;;;;;;;;35.22;32.08;100049.99;1657442;86;20099;-72
2021/08/16 09:08:27;;;;;;;;;;;;;;;35.14;32.04;100050.43;1645993;86;20445;-72
2021/08/16 09:11:15;;;;;;;;;;;;;;;34.98;32.41;100047.47;1646255;86;20102;-68
2021/08/16 09:13:57;;;;;;;;;;;;;;;34.89;32.54;100049.46;1642657;86;20110;-69
2021/08/16 09:16:31;;;;;;;;;;;;;;;34.84;32.40;100050.19;1659451;86;20105;-73
2021/08/16 09:18:58;;;;;;;;;;;;;;;34.81;31.86;100049.33;1651102;86;20246;-67
2021/08/16 09:21:36;;;;;;;;;;;;;;;34.70;32.62;100046.15;1644918;86;20175;-70
2021/08/16 09:24:04;;;;;;;;;;;;;;;34.61;32.90;100043.02;1686584;83;20158;-70
2021/08/16 09:26:40;;;;;;;;;;;;;;;34.58;32.99;100044.85;1692527;85;20123;-70
2021/08/16 09:29:14;;;;;;;;;;;;;;;34.55;32.71;100035.87;1754110;80;20696;-71
2021/08/16 09:32:02;;;;;;;;;;;;;;;34.48;33.01;100041.13;1753392;82;20083;-71
2021/08/16 09:34:42;;;;;;;;;;;;;;;34.40;32.75;100039.10;1751565;81;20428;-69
2021/08/16 09:37:25;;;;;;;;;;;;;;;34.32;32.71;100034.11;1716330;83;20109;-68
2021/08/16 09:40:02;;;;;;;;;;;;;;;34.27;32.88;100027.22;1716207;83;20117;-69
2021/08/16 09:42:44;;;;;;;;;;;;;;;34.27;32.60;100028.56;1738335;82;20374;-73
2021/08/16 09:45:15;;;;;;;;;;;;;;;34.24;32.89;100022.82;1738260;82;20157;-73
2021/08/16 09:47:45;;;;;;;;;;;;;;;34.20;33.12;100017.08;1747554;82;20129;-72
2021/08/16 09:50:13;;;;;;;;;;;;;;;34.13;33.07;100017.74;1737805;82;20083;-72
2021/08/16 09:52:41;;;;;;;;;;;;;;;34.06;32.97;100017.05;1739308;82;20450;-70
2021/08/16 09:55:09;;;;;;;;;;;;;;;33.92;33.31;100021.11;1728496;82;21070;-70
2021/08/16 09:57:37;;;;;;;;;;;;;;;33.81;33.50;100014.67;1731269;82;20151;-71
2021/08/16 10:00:05;;;;;;;;;;;;;;;33.71;33.55;100008.48;1749793;80;20170;-72
2021/08/16 10:02:34;;;;;;;;;;;;;;;33.65;33.72;100009.96;1779266;80;20139;-71
2021/08/16 10:05:02;;;;;;;;;;;;;;;33.60;33.79;100013.90;1753165;81;20377;-69
2021/08/16 10:07:36;;;;;;;;;;;;;;;33.54;33.64;100012.17;1745751;82;21217;-68
2021/08/16 10:10:09;;;;;;;;;;;;;;;33.49;33.76;100010.70;1758181;81;20438;-70
2021/08/16 10:12:38;;;;;;;;;;;;;;;33.42;33.91;100008.12;1753555;80;20171;-69
2021/08/16 10:15:07;;;;;;;;;;;;;;;33.35;33.98;100005.55;1774955;81;20093;-68
2021/08/16 10:17:38;;;;;;;;;;;;;;;33.28;34.02;100004.02;1722415;81;20101;-69
2021/08/16 10:20:07;;;;;;;;;;;;;;;33.22;34.11;100001.69;1775686;81;20140;-70
2021/08/16 10:22:37;;;;;;;;;;;;;;;33.17;34.62;100004.83;1777059;80;20098;-67
2021/08/16 10:25:12;;;;;;;;;;;;;;;33.12;34.06;100006.34;1776782;80;20199;-65
2021/08/16 10:27:38;;;;;;;;;;;;;;;33.05;33.56;100002.94;1748827;80;20074;-72
2021/08/16 10:30:13;;;;;;;;;;;;;;;32.97;33.98;99999.23;1752440;81;20199;-71
2021/08/16 10:32:41;;;;;;;;;;;;;;;32.96;34.26;99990.84;1777239;80;21070;-70
2021/08/16 10:35:11;;;;;;;;;;;;;;;33.00;34.53;99993.37;1729880;81;20080;-67
2021/08/16 10:37:39;;;;;;;;;;;;;;;33.06;34.56;99978.95;1771089;80;20148;-68
2021/08/16 10:40:17;;;;;;;;;;;;;;;33.13;34.59;99993.15;1775059;81;20189;-70
2021/08/16 10:42:53;;;;;;;;;;;;;;;33.11;33.88;99984.99;1768677;80;20085;-67
2021/08/16 10:45:28;;;;;;;;;;;;;;;33.07;34.46;99991.38;1745613;82;21940;-68
2021/08/16 10:48:01;;;;;;;;;;;;;;;33.06;34.51;99984.34;1745461;82;20225;-68
2021/08/16 10:50:28;;;;;;;;;;;;;;;33.12;34.61;99978.55;1718911;82;20087;-67
2021/08/16 10:53:08;;;;;;;;;;;;;;;33.16;34.41;99975.67;1718411;82;20397;-66
2021/08/16 10:55:40;;;;;;;;;;;;;;;33.15;34.52;99975.38;1765971;81;20427;-66
2021/08/16 10:58:10;;;;;;;;;;;;;;;33.14;34.52;99981.83;1764662;81;21885;-67
2021/08/16 11:00:41;;;;;;;;;;;;;;;33.12;34.46;99982.06;1741816;80;20481;-70
2021/08/16 11:03:07;;;;;;;;;;;;;;;33.12;34.61;99971.27;1760828;80;20143;-68
2021/08/16 11:05:40;;;;;;;;;;;;;;;33.16;34.73;99976.20;1753295;81;20128;-67
2021/08/16 11:08:08;;;;;;;;;;;;;;;33.16;34.53;99978.37;1771006;80;20120;-70
2021/08/16 11:10:49;;;;;;;;;;;;;;;33.17;34.51;99976.50;1747755;81;20281;-71
2021/08/16 11:13:20;;;;;;;;;;;;;;;33.15;34.40;99974.03;1752914;81;20154;-69
2021/08/16 11:15:51;;;;;;;;;;;;;;;33.19;34.44;99970.34;1750203;80;20179;-69
2021/08/16 11:18:22;;;;;;;;;;;;;;;33.23;34.41;99971.48;1730555;82;20132;-68
2021/08/16 11:20:57;;;;;;;;;;;;;;;33.28;34.37;99966.23;1775122;80;20112;-67
2021/08/16 11:23:27;;;;;;;;;;;;;;;33.31;34.36;99967.93;1772367;80;20493;-69
2021/08/16 11:25:57;;;;;;;;;;;;;;;33.34;33.95;99969.34;1782490;80;20115;-73
2021/08/16 11:28:28;;;;;;;;;;;;;;;33.35;34.28;99967.75;1730165;82;20220;-77
2021/08/16 11:31:04;;;;;;;;;;;;;;;33.39;34.49;99969.45;1753618;82;20431;-68
2021/08/16 11:33:31;;;;;;;;;;;;;;;33.46;34.36;99968.27;1764282;80;20122;-68
2021/08/16 11:36:06;;;;;;;;;;;;;;;33.56;33.86;99966.33;1779790;80;21035;-69
2021/08/16 11:38:35;;;;;;;;;;;;;;;33.70;34.05;99958.77;1778080;80;20084;-69
2021/08/16 11:41:12;;;;;;;;;;;;;;;33.82;33.36;99957.41;1754344;80;20088;-72
2021/08/16 11:43:41;;;;;;;;;;;;;;;33.80;33.22;99956.30;1776023;80;20120;-69
2021/08/16 11:46:24;;;;;;;;;;;;;;;33.72;33.05;99953.41;1752984;82;20423;-68
2021/08/16 11:48:54;;;;;;;;;;;;;;;33.67;33.36;99949.25;1739688;80;21142;-68
2021/08/16 11:51:23;;;;;;;;;;;;;;;33.68;33.21;99944.67;1772481;80;21118;-68
2021/08/16 11:53:52;;;;;;;;;;;;;;;33.69;33.35;99945.78;1731649;80;20092;-69
2021/08/16 11:56:23;;;;;;;;;;;;;;;33.68;33.29;99941.97;1722763;80;20104;-67
2021/08/16 11:58:50;;;;;;;;;;;;;;;33.62;33.48;99942.39;1771028;80;20089;-68
2021/08/16 12:01:18;;;;;;;;;;;;;;;33.56;33.79;99943.38;1776929;80;21105;-67
2021/08/16 12:03:45;;;;;;;;;;;;;;;33.50;33.65;99947.55;1777810;80;20108;-68
2021/08/16 12:06:14;;;;;;;;;;;;;;;33.39;33.93;99945.98;1776431;80;20084;-67
2021/08/16 12:08:42;;;;;;;;;;;;;;;33.29;33.49;99948.45;1786029;80;20080;-66
2021/08/16 12:11:14;;;;;;;;;;;;;;;33.18;33.21;99941.18;1785813;80;20407;-67
2021/08/16 12:13:48;;;;;;;;;;;;;;;33.10;33.61;99944.23;1768390;80;22145;-66
2021/08/16 12:16:15;;;;;;;;;;;;;;;33.02;33.91;99935.13;1718760;80;20454;-66
2021/08/16 12:18:43;;;;;;;;;;;;;;;33.03;34.14;99940.30;1782704;80;20081;-67
2021/08/16 12:21:21;;;;;;;;;;;;;;;33.11;33.89;99933.20;1760551;80;20101;-68
2021/08/16 12:23:58;;;;;;;;;;;;;;;33.19;33.45;99927.95;1754092;81;20100;-69
2021/08/16 12:26:30;;;;;;;;;;;;;;;33.28;33.24;99936.55;1748904;82;21139;-70
2021/08/16 12:28:57;;;;;;;;;;;;;;;33.33;33.29;99936.66;1750351;81;20158;-71
2021/08/16 12:31:27;;;;;;;;;;;;;;;33.37;33.19;99924.33;1735419;80;20082;-71
2021/08/16 12:34:04;;;;;;;;;;;;;;;33.37;32.88;99922.45;1740670;81;20070;-68
2021/08/16 12:36:32;;;;;;;;;;;;;;;33.36;32.43;99926.73;1761262;81;20113;-72
2021/08/16 12:39:05;;;;;;;;;;;;;;;33.30;32.55;99920.94;1757044;81;20087;-69
2021/08/16 12:41:35;;;;;;;;;;;;;;;33.21;32.42;99915.56;1760421;81;20094;-68
2021/08/16 12:44:02;;;;;;;;;;;;;;;33.13;33.24;99921.64;1751785;81;20095;-70
2021/08/16 12:46:34;;;;;;;;;;;;;;;33.08;33.84;99921.53;1764021;81;20094;-70
2021/08/16 12:49:06;;;;;;;;;;;;;;;33.05;33.71;99917.13;1764514;81;20418;-68
2021/08/16 12:51:38;;;;;;;;;;;;;;;33.03;33.77;99913.31;1736574;81;21056;-71
2021/08/16 12:54:05;;;;;;;;;;;;;;;33.01;33.44;99908.69;1764176;81;20094;-68
2021/08/16 12:56:32;;;;;;;;;;;;;;;32.92;33.32;99906.04;1748044;81;20090;-69
2021/08/16 12:58:59;;;;;;;;;;;;;;;32.78;33.60;99910.05;1756009;81;20435;-71
2021/08/16 13:01:28;;;;;;;;;;;;;;;32.70;33.49;99909.83;1760903;81;20120;-69
2021/08/16 13:03:56;;;;;;;;;;;;;;;32.61;33.64;99907.70;1730378;82;20114;-71
2021/08/16 13:06:39;;;;;;;;;;;;;;;32.54;33.72;99909.16;1725034;82;20097;-70
2021/08/16 13:09:09;;;;;;;;;;;;;;;32.45;34.01;99907.84;1731507;82;20125;-71
2021/08/16 13:11:41;;;;;;;;;;;;;;;32.37;34.16;99909.03;1742365;81;20193;-73
2021/08/16 13:14:17;;;;;;;;;;;;;;;32.28;34.13;99909.59;1759857;81;20094;-69
2021/08/16 13:19:40;;;;;;;;;;;;;;;32.04;34.81;99907.30;1742098;81;20080;-73
2021/08/16 13:22:34;;;;;;;;;;;;;;;31.89;34.58;99905.04;1738908;81;20099;-68
2021/08/16 13:25:18;;;;;;;;;;;;;;;31.73;34.97;99907.83;1734222;81;20082;-72
2021/08/16 13:27:55;;;;;;;;;;;;;;;31.66;34.81;99894.94;1712958;81;20149;-71
2021/08/16 13:30:25;;;;;;;;;;;;;;;31.67;34.48;99899.80;1706386;83;20079;-75
2021/08/16 13:32:54;;;;;;;;;;;;;;;31.65;34.48;99889.78;1708486;82;20632;-70
2021/08/16 13:35:23;;;;;;;;;;;;;;;31.63;34.86;99892.70;1714011;83;20114;-73
2021/08/16 13:37:49;;;;;;;;;;;;;;;31.62;35.02;99888.36;1717018;83;20140;-73
2021/08/16 13:40:21;;;;;;;;;;;;;;;31.61;35.01;99878.64;1714860;83;20101;-74
2021/08/16 13:42:53;;;;;;;;;;;;;;;31.59;35.20;99878.60;1723784;83;20390;-73
2021/08/16 13:45:21;;;;;;;;;;;;;;;31.60;35.32;99874.83;1714143;83;20117;-74
2021/08/16 13:47:51;;;;;;;;;;;;;;;31.59;35.52;99871.31;1719102;83;20107;-75
2021/08/16 13:53:25;;;;;;;;;;;;;;;31.56;34.99;99872.32;1722426;83;20095;-70
2021/08/16 13:55:56;;;;;;;;;;;;;;;31.52;35.69;99867.91;1707552;83;20144;-75
2021/08/16 13:58:24;;;;;;;;;;;;;;;31.51;35.87;99866.27;1713701;83;20125;-71
2021/08/16 14:00:50;;;;;;;;;;;;;;;31.47;35.11;99865.90;1713129;83;20382;-70
